Time;durP1;ratioP1;P1;durP2;ratioP2;P2;SDS_P1;SDS_P2;PMS_P1;PMS_P2;Temp;Humidity;BMP_temperature;BMP_pressure;BME280_temperature;BME280_humidity;BME280_pressure;Samples;Min_cycle;Max_cycle;Signal;HPM_P1;HPM_P2
2021/11/03 00:01:31;;;;;;;4.05;1.88;;;18.30;99.90;;;;;;5092451;28;20031;-70
2021/11/03 00:03:59;;;;;;;4.38;2.30;;;18.30;99.90;;;;;;5092870;28;20032;-70
2021/11/03 00:06:24;;;;;;;3.15;1.80;;;18.30;99.90;;;;;;5092443;28;20051;-69
2021/11/03 00:08:51;;;;;;;3.05;1.75;;;18.30;99.90;;;;;;5092511;28;20059;-70
2021/11/03 00:11:17;;;;;;;2.88;1.90;;;18.30;99.90;;;;;;5092322;28;20089;-70
2021/11/03 00:13:43;;;;;;;4.97;1.75;;;18.20;99.90;;;;;;5092789;28;20440;-70
2021/11/03 00:16:08;;;;;;;6.18;1.70;;;18.30;99.90;;;;;;5092398;28;20079;-70
2021/11/03 00:18:34;;;;;;;4.97;1.92;;;18.30;99.90;;;;;;5092215;28;20028;-70
2021/11/03 00:21:02;;;;;;;2.60;1.77;;;18.20;99.90;;;;;;5091017;28;20480;-70
2021/11/03 00:23:28;;;;;;;3.88;1.80;;;18.20;99.90;;;;;;5092145;28;20421;-71
2021/11/03 00:25:53;;;;;;;3.95;1.55;;;18.20;99.90;;;;;;5092286;28;20031;-71
2021/11/03 00:28:21;;;;;;;4.45;1.83;;;18.20;99.90;;;;;;5091926;28;20027;-71
2021/11/03 00:30:50;;;;;;;3.60;1.98;;;18.20;99.90;;;;;;5092099;28;20031;-70
2021/11/03 00:33:17;;;;;;;3.47;2.10;;;18.20;99.90;;;;;;5092043;28;20021;-70
2021/11/03 00:35:43;;;;;;;3.17;2.10;;;18.20;99.90;;;;;;5092507;28;20032;-70
2021/11/03 00:38:08;;;;;;;4.47;2.13;;;18.10;99.90;;;;;;5091259;28;20020;-70
2021/11/03 00:40:34;;;;;;;5.88;1.88;;;18.10;99.90;;;;;;5091852;28;20039;-70
2021/11/03 00:43:00;;;;;;;3.28;2.08;;;18.10;99.90;;;;;;5090706;28;20494;-70
2021/11/03 00:45:25;;;;;;;3.70;1.80;;;18.10;99.90;;;;;;5091763;28;20468;-70
2021/11/03 00:47:51;;;;;;;2.97;1.83;;;18.10;99.90;;;;;;5091947;28;20464;-70
2021/11/03 00:50:18;;;;;;;3.30;1.77;;;18.10;99.90;;;;;;5091593;28;20467;-71
2021/11/03 00:52:44;;;;;;;3.17;1.60;;;18.10;99.90;;;;;;5092089;28;20100;-70
2021/11/03 00:55:10;;;;;;;2.53;1.65;;;18.10;99.90;;;;;;5091749;28;20062;-70
2021/11/03 00:57:35;;;;;;;2.60;1.77;;;18.10;99.90;;;;;;5091466;28;20379;-70
2021/11/03 01:00:03;;;;;;;2.80;1.83;;;18.00;99.90;;;;;;5091909;28;20034;-70
2021/11/03 01:02:29;;;;;;;2.92;1.80;;;18.00;99.90;;;;;;5091559;28;20109;-72
2021/11/03 01:04:55;;;;;;;4.18;1.95;;;18.00;99.90;;;;;;5091536;28;20028;-71
2021/11/03 01:07:21;;;;;;;3.00;1.95;;;18.00;99.90;;;;;;5091530;28;20036;-71
2021/11/03 01:09:46;;;;;;;2.83;1.70;;;18.00;99.90;;;;;;5091600;28;20028;-71
2021/11/03 01:12:13;;;;;;;7.55;2.63;;;18.00;99.90;;;;;;5090644;28;20527;-70
2021/11/03 01:14:38;;;;;;;3.45;2.00;;;18.00;99.90;;;;;;5091320;28;20024;-70
2021/11/03 01:17:04;;;;;;;2.97;1.77;;;18.00;99.90;;;;;;5091600;28;20081;-70
2021/11/03 01:19:30;;;;;;;2.83;1.65;;;18.00;99.90;;;;;;5091301;28;20024;-70
2021/11/03 01:21:57;;;;;;;4.25;2.00;;;18.00;99.90;;;;;;5091514;28;20024;-70
2021/11/03 01:24:22;;;;;;;3.60;1.98;;;18.00;99.90;;;;;;5090012;28;20024;-71
2021/11/03 01:26:48;;;;;;;3.95;2.15;;;17.90;99.90;;;;;;5091468;28;20024;-71
2021/11/03 01:29:13;;;;;;;6.10;1.83;;;18.00;99.90;;;;;;5091860;28;20020;-80
2021/11/03 01:31:39;;;;;;;5.57;2.08;;;18.00;99.90;;;;;;5091082;28;20039;-66
2021/11/03 01:34:06;;;;;;;3.50;1.90;;;18.00;99.90;;;;;;5091342;28;20036;-70
2021/11/03 01:36:31;;;;;;;4.15;1.80;;;18.00;99.90;;;;;;5091258;28;20078;-71
2021/11/03 01:38:57;;;;;;;3.97;2.10;;;18.00;99.90;;;;;;5091312;28;20031;-69
2021/11/03 01:41:23;;;;;;;9.40;2.05;;;18.00;99.90;;;;;;5090980;28;20036;-69
2021/11/03 01:44:09;;;;;;;3.72;1.70;;;18.00;99.90;;;;;;5091313;28;20024;-71
2021/11/03 01:46:40;;;;;;;5.82;1.88;;;18.00;99.90;;;;;;5091109;28;20363;-71
2021/11/03 01:49:22;;;;;;;2.95;1.65;;;18.00;99.90;;;;;;5092753;28;20047;-71
2021/11/03 01:51:52;;;;;;;5.38;2.03;;;18.00;99.90;;;;;;5095322;28;20129;-68
2021/11/03 01:54:22;;;;;;;5.95;2.33;;;18.00;99.90;;;;;;5093776;28;20516;-68
2021/11/03 01:56:48;;;;;;;6.20;1.90;;;18.00;99.90;;;;;;5095437;28;20032;-69
2021/11/03 01:59:22;;;;;;;3.85;1.77;;;18.00;99.90;;;;;;5095476;28;20024;-68
2021/11/03 02:01:49;;;;;;;5.07;1.80;;;18.00;99.90;;;;;;5093895;28;20027;-68
2021/11/03 02:04:16;;;;;;;3.25;2.00;;;18.00;99.90;;;;;;5095286;28;20479;-69
2021/11/03 02:06:42;;;;;;;6.00;1.80;;;18.00;99.90;;;;;;5095525;28;20024;-69
2021/11/03 02:09:08;;;;;;;3.20;1.98;;;18.00;99.90;;;;;;5094821;28;20039;-68
2021/11/03 02:11:34;;;;;;;5.43;1.70;;;18.00;99.90;;;;;;5094596;28;20074;-68
2021/11/03 02:14:03;;;;;;;3.30;1.48;;;18.00;99.90;;;;;;5094790;28;20029;-69
2021/11/03 02:16:29;;;;;;;5.75;1.90;;;18.00;99.90;;;;;;5094538;28;20043;-68
2021/11/03 02:18:55;;;;;;;2.72;1.80;;;18.00;99.90;;;;;;5094698;28;20066;-68
2021/11/03 02:21:28;;;;;;;3.97;1.60;;;18.00;99.90;;;;;;5094447;28;20417;-68
2021/11/03 02:24:43;;;;;;;2.08;1.63;;;18.00;99.90;;;;;;5094876;28;20024;-68
2021/11/03 02:27:11;;;;;;;4.82;1.70;;;18.00;99.90;;;;;;5072181;28;20111;-69
2021/11/03 02:29:38;;;;;;;4.43;1.83;;;18.00;99.90;;;;;;5072026;28;20032;-71
2021/11/03 02:32:31;;;;;;;4.50;1.75;;;18.00;99.90;;;;;;5084616;28;20060;-69
2021/11/03 02:34:57;;;;;;;6.15;1.73;;;18.00;99.90;;;;;;5094469;28;20022;-68
2021/11/03 02:37:29;;;;;;;3.88;1.90;;;18.00;99.90;;;;;;5094210;28;20399;-71
2021/11/03 02:40:36;;;;;;;2.95;1.60;;;18.00;99.90;;;;;;5094632;28;20027;-70
2021/11/03 02:43:17;;;;;;;4.65;1.70;;;18.00;99.90;;;;;;5091159;28;20031;-71
2021/11/03 02:45:43;;;;;;;4.28;1.67;;;18.00;99.90;;;;;;5094537;28;20480;-68
2021/11/03 02:48:09;;;;;;;3.50;1.65;;;18.00;99.90;;;;;;5094176;28;20035;-68
2021/11/03 02:50:35;;;;;;;4.22;1.50;;;18.00;99.90;;;;;;5093893;28;20028;-68
2021/11/03 02:53:01;;;;;;;2.22;1.70;;;18.00;99.90;;;;;;5094119;28;20028;-68
2021/11/03 02:55:27;;;;;;;3.45;1.50;;;18.00;99.90;;;;;;5094000;28;20372;-69
2021/11/03 02:57:53;;;;;;;2.67;1.50;;;18.00;99.90;;;;;;5093971;28;20032;-68
2021/11/03 03:00:20;;;;;;;3.60;1.67;;;18.00;99.90;;;;;;5092991;28;20077;-68
2021/11/03 03:02:46;;;;;;;2.55;1.60;;;18.00;99.90;;;;;;5092621;28;20024;-68
2021/11/03 03:05:13;;;;;;;2.97;1.73;;;18.00;99.90;;;;;;5094165;28;20494;-68
2021/11/03 03:07:39;;;;;;;2.90;1.73;;;18.10;99.90;;;;;;5093755;28;20031;-69
2021/11/03 03:10:06;;;;;;;3.20;1.60;;;18.00;99.90;;;;;;5093630;28;20020;-68
2021/11/03 03:12:32;;;;;;;4.13;1.67;;;18.00;99.90;;;;;;5093591;28;20392;-69
2021/11/03 03:15:00;;;;;;;3.03;1.52;;;18.10;99.90;;;;;;5093631;28;20020;-69
2021/11/03 03:17:25;;;;;;;10.80;1.90;;;18.10;99.90;;;;;;5093395;28;20543;-70
2021/11/03 03:19:52;;;;;;;4.63;1.90;;;18.10;99.90;;;;;;5093661;28;20099;-69
2021/11/03 03:22:19;;;;;;;4.07;1.80;;;18.10;99.90;;;;;;5092143;28;20024;-70
2021/11/03 03:24:46;;;;;;;2.75;1.35;;;18.10;99.90;;;;;;5093681;28;20480;-68
2021/11/03 03:27:12;;;;;;;2.85;1.52;;;18.10;99.90;;;;;;5093829;28;20168;-71
2021/11/03 03:29:38;;;;;;;2.55;1.67;;;18.10;99.90;;;;;;5093170;28;20054;-70
2021/11/03 03:32:05;;;;;;;3.20;1.52;;;18.10;99.90;;;;;;5093408;28;20068;-70
2021/11/03 03:34:32;;;;;;;2.92;1.42;;;18.10;99.90;;;;;;5093097;28;20029;-70
2021/11/03 03:36:58;;;;;;;2.63;1.25;;;18.10;99.90;;;;;;5093524;28;20371;-69
2021/11/03 03:39:26;;;;;;;4.25;1.60;;;18.10;99.90;;;;;;5093096;28;20031;-69
2021/11/03 03:41:58;;;;;;;2.17;1.27;;;18.10;99.90;;;;;;5093376;28;20028;-69
2021/11/03 03:44:24;;;;;;;2.03;1.45;;;18.20;99.90;;;;;;5092716;28;20039;-69
2021/11/03 03:46:50;;;;;;;2.45;1.55;;;18.10;99.90;;;;;;5093067;28;20097;-69
2021/11/03 03:49:16;;;;;;;2.15;1.42;;;18.20;99.90;;;;;;5092989;28;20476;-70
2021/11/03 03:51:42;;;;;;;2.60;1.48;;;18.20;99.90;;;;;;5093180;28;20032;-68
2021/11/03 03:54:08;;;;;;;3.78;1.75;;;18.20;99.90;;;;;;5092896;28;20043;-69
2021/11/03 03:56:34;;;;;;;2.17;1.50;;;18.20;99.90;;;;;;5091250;28;20034;-69
2021/11/03 03:58:59;;;;;;;2.85;1.60;;;18.20;99.90;;;;;;5092742;28;20557;-69
2021/11/03 04:01:27;;;;;;;3.58;1.60;;;18.20;99.90;;;;;;5092550;28;20035;-69
2021/11/03 04:03:54;;;;;;;5.05;1.52;;;18.20;99.90;;;;;;5092547;28;20431;-68
2021/11/03 04:06:20;;;;;;;4.68;1.52;;;18.20;99.90;;;;;;5092349;28;20099;-69
2021/11/03 04:08:46;;;;;;;2.72;1.45;;;18.20;99.90;;;;;;5092776;28;20107;-69
2021/11/03 04:11:12;;;;;;;2.25;1.20;;;18.20;99.90;;;;;;5092758;28;20040;-69
2021/11/03 04:13:38;;;;;;;2.78;1.27;;;18.20;99.90;;;;;;5092131;28;20054;-69
2021/11/03 04:16:04;;;;;;;2.42;1.40;;;18.20;99.90;;;;;;5092562;28;20028;-68
2021/11/03 04:18:30;;;;;;;2.25;1.45;;;18.30;99.90;;;;;;5092237;28;20499;-68
2021/11/03 04:20:56;;;;;;;1.73;1.23;;;18.30;99.90;;;;;;5092649;28;20039;-68
2021/11/03 04:23:22;;;;;;;5.95;1.58;;;18.30;99.90;;;;;;5090785;28;20467;-69
2021/11/03 04:25:48;;;;;;;3.22;1.52;;;18.30;99.90;;;;;;5105273;28;20020;-68
2021/11/03 04:28:14;;;;;;;2.88;1.23;;;18.30;99.90;;;;;;5112754;28;20019;-68
2021/11/03 04:30:40;;;;;;;3.15;1.40;;;18.30;99.90;;;;;;5111251;28;20038;-68
2021/11/03 04:33:06;;;;;;;1.80;1.33;;;18.40;99.90;;;;;;5112266;28;20118;-68
2021/11/03 04:35:33;;;;;;;3.30;1.90;;;18.30;99.90;;;;;;5112436;28;20532;-70
2021/11/03 04:37:59;;;;;;;2.90;1.40;;;18.30;99.90;;;;;;5112485;28;20027;-69
2021/11/03 04:40:27;;;;;;;1.65;1.20;;;18.30;99.90;;;;;;5112113;28;20390;-67
2021/11/03 04:42:54;;;;;;;2.30;1.67;;;18.40;99.90;;;;;;5112462;28;20106;-68
2021/11/03 04:45:20;;;;;;;3.08;1.25;;;18.40;99.90;;;;;;5110644;28;20023;-69
2021/11/03 04:47:47;;;;;;;4.22;1.48;;;18.40;99.90;;;;;;5111300;28;20475;-68
2021/11/03 04:50:17;;;;;;;2.33;1.30;;;18.40;99.90;;;;;;5112102;27;20034;-68
2021/11/03 04:52:43;;;;;;;2.30;1.38;;;18.40;99.90;;;;;;5112481;28;20031;-68
2021/11/03 04:55:09;;;;;;;1.60;1.20;;;18.40;99.90;;;;;;5111871;28;20034;-70
2021/11/03 04:57:35;;;;;;;4.28;1.58;;;18.40;99.90;;;;;;5111966;28;20019;-68
2021/11/03 05:00:05;;;;;;;1.33;1.20;;;18.50;99.90;;;;;;5110849;28;20062;-69
2021/11/03 05:02:31;;;;;;;1.88;1.33;;;18.40;99.90;;;;;;5111955;28;20052;-68
2021/11/03 05:04:57;;;;;;;2.05;1.23;;;18.50;99.90;;;;;;5112057;28;20020;-70
2021/11/03 05:07:23;;;;;;;1.98;1.30;;;18.50;99.90;;;;;;5111662;28;20028;-70
2021/11/03 05:09:48;;;;;;;3.70;1.38;;;18.50;99.90;;;;;;5111928;28;20029;-68
2021/11/03 05:12:14;;;;;;;2.20;1.30;;;18.50;99.90;;;;;;5111917;28;20032;-70
2021/11/03 05:14:40;;;;;;;2.65;1.27;;;18.50;99.90;;;;;;5111775;28;20026;-69
2021/11/03 05:17:06;;;;;;;3.08;1.40;;;18.50;99.90;;;;;;5111570;28;20023;-68
2021/11/03 05:19:33;;;;;;;2.00;1.33;;;18.50;99.90;;;;;;5112183;28;20404;-69
2021/11/03 05:21:59;;;;;;;2.45;1.27;;;18.50;99.90;;;;;;5111822;28;20472;-69
2021/11/03 05:24:25;;;;;;;4.18;1.40;;;18.50;99.90;;;;;;5110865;28;20356;-69
2021/11/03 05:26:52;;;;;;;1.85;1.20;;;18.50;99.90;;;;;;5111807;28;20034;-69
2021/11/03 05:29:18;;;;;;;3.63;1.70;;;18.60;99.90;;;;;;5111412;28;20028;-68
2021/11/03 05:31:44;;;;;;;1.88;1.35;;;18.60;99.90;;;;;;5111980;28;20028;-68
2021/11/03 05:34:10;;;;;;;6.68;1.30;;;18.60;99.90;;;;;;5111488;28;20020;-70
2021/11/03 05:36:36;;;;;;;2.25;1.08;;;18.60;99.90;;;;;;5111649;28;20047;-70
2021/11/03 05:39:07;;;;;;;3.47;1.40;;;18.60;99.90;;;;;;5111588;28;20055;-70
2021/11/03 05:41:37;;;;;;;3.60;1.35;;;18.60;99.90;;;;;;5111494;28;20036;-69
2021/11/03 05:44:07;;;;;;;1.85;1.38;;;18.60;99.90;;;;;;5111634;28;20028;-70
2021/11/03 05:46:37;;;;;;;5.85;1.40;;;18.60;99.90;;;;;;5111507;28;20023;-70
2021/11/03 05:49:05;;;;;;;4.78;1.20;;;18.60;99.90;;;;;;5111663;28;20019;-70
2021/11/03 05:51:32;;;;;;;2.85;1.35;;;18.60;99.90;;;;;;5111438;28;20032;-70
2021/11/03 05:53:57;;;;;;;4.00;1.52;;;18.70;99.90;;;;;;5111717;28;20027;-69
2021/11/03 05:56:23;;;;;;;3.55;1.58;;;18.70;99.90;;;;;;5111176;28;20027;-68
2021/11/03 05:58:49;;;;;;;2.22;1.38;;;18.70;99.90;;;;;;5111603;28;20035;-69
2021/11/03 06:01:15;;;;;;;2.25;1.20;;;18.70;99.90;;;;;;5111555;28;20111;-68
2021/11/03 06:03:40;;;;;;;1.60;1.10;;;18.70;99.90;;;;;;5111526;28;20099;-68
2021/11/03 06:06:06;;;;;;;2.40;1.13;;;18.70;99.90;;;;;;5111158;28;20027;-69
2021/11/03 06:08:32;;;;;;;6.28;1.35;;;18.70;99.90;;;;;;5110122;28;20027;-69
2021/11/03 06:10:59;;;;;;;5.38;1.70;;;18.70;99.90;;;;;;5111425;28;20027;-69
2021/11/03 06:13:25;;;;;;;3.03;1.27;;;18.70;99.90;;;;;;5111137;28;20360;-68
2021/11/03 06:15:50;;;;;;;4.65;1.45;;;18.70;99.90;;;;;;5111313;28;20023;-68
2021/11/03 06:18:16;;;;;;;2.20;1.52;;;18.70;99.90;;;;;;5111468;28;20024;-68
2021/11/03 06:20:42;;;;;;;2.78;1.30;;;18.70;99.90;;;;;;5111472;28;20020;-68
2021/11/03 06:23:07;;;;;;;2.90;1.35;;;18.80;99.90;;;;;;5111139;28;20028;-68
2021/11/03 06:25:34;;;;;;;4.22;1.63;;;18.70;99.90;;;;;;5111431;28;20136;-68
2021/11/03 06:28:01;;;;;;;6.20;1.38;;;18.70;99.90;;;;;;5111461;28;20408;-68
2021/11/03 06:30:31;;;;;;;3.42;1.77;;;18.80;99.90;;;;;;5110991;28;20104;-69
2021/11/03 06:32:57;;;;;;;1.52;1.30;;;18.80;99.90;;;;;;5111095;28;20031;-68
2021/11/03 06:35:24;;;;;;;3.63;1.20;;;18.80;99.90;;;;;;5111384;28;20177;-69
2021/11/03 06:37:51;;;;;;;1.92;1.23;;;18.80;99.90;;;;;;5115108;28;20066;-69
2021/11/03 06:40:19;;;;;;;3.83;1.55;;;18.80;99.90;;;;;;5114875;28;20024;-68
2021/11/03 06:42:45;;;;;;;2.75;1.40;;;18.80;99.90;;;;;;5114724;28;20028;-68
2021/11/03 06:45:12;;;;;;;5.18;1.55;;;18.80;99.90;;;;;;5114402;28;20123;-68
2021/11/03 06:47:38;;;;;;;2.45;1.20;;;18.80;99.90;;;;;;5114803;27;20019;-68
2021/11/03 06:50:05;;;;;;;2.92;1.50;;;18.80;99.90;;;;;;5114623;28;20471;-68
2021/11/03 06:52:32;;;;;;;3.88;1.25;;;18.80;99.90;;;;;;5113400;28;20080;-68
2021/11/03 06:54:58;;;;;;;5.82;1.80;;;18.80;99.90;;;;;;5114410;28;20020;-68
2021/11/03 06:57:23;;;;;;;3.00;1.20;;;18.80;99.90;;;;;;5114095;28;20028;-70
2021/11/03 06:59:51;;;;;;;2.53;1.40;;;18.80;99.90;;;;;;5114575;28;20034;-69
2021/11/03 07:02:17;;;;;;;3.15;1.45;;;18.90;99.90;;;;;;5114000;28;20153;-68
2021/11/03 07:04:43;;;;;;;3.10;1.48;;;18.90;99.90;;;;;;5114282;28;20023;-68
2021/11/03 07:07:10;;;;;;;6.53;1.55;;;18.90;99.90;;;;;;5113860;28;20068;-70
2021/11/03 07:09:36;;;;;;;2.90;1.58;;;18.90;99.90;;;;;;5114186;28;20028;-69
2021/11/03 07:12:03;;;;;;;2.15;1.40;;;18.90;99.90;;;;;;5114030;28;20035;-69
2021/11/03 07:14:29;;;;;;;1.42;1.10;;;18.90;99.90;;;;;;5113785;27;20016;-71
2021/11/03 07:16:54;;;;;;;3.85;1.42;;;18.90;99.90;;;;;;5114287;28;20114;-70
2021/11/03 07:19:20;;;;;;;2.55;1.40;;;18.90;99.90;;;;;;5113955;28;20103;-69
2021/11/03 07:21:46;;;;;;;2.55;1.48;;;18.90;99.90;;;;;;5113905;28;20088;-70
2021/11/03 07:24:13;;;;;;;4.20;1.42;;;18.90;99.90;;;;;;5113552;28;20030;-70
2021/11/03 07:26:42;;;;;;;2.15;1.10;;;19.00;99.90;;;;;;5113757;28;20115;-69
2021/11/03 07:29:08;;;;;;;3.55;1.33;;;19.00;99.90;;;;;;5113406;28;20117;-69
2021/11/03 07:31:34;;;;;;;1.50;1.20;;;19.00;99.90;;;;;;5113819;28;20040;-70
2021/11/03 07:34:00;;;;;;;2.92;1.48;;;19.00;99.90;;;;;;5113681;28;20019;-69
2021/11/03 07:36:25;;;;;;;2.50;1.33;;;19.00;99.90;;;;;;5113315;27;20524;-70
2021/11/03 07:38:51;;;;;;;3.35;1.30;;;19.00;99.90;;;;;;5113775;28;20077;-70
2021/11/03 07:41:17;;;;;;;2.65;1.30;;;19.00;99.90;;;;;;5113330;28;20106;-70
2021/11/03 07:43:44;;;;;;;3.08;1.42;;;19.00;99.90;;;;;;5113609;28;20090;-70
2021/11/03 07:46:11;;;;;;;3.50;1.25;;;19.00;99.90;;;;;;5112811;28;20035;-70
2021/11/03 07:48:37;;;;;;;2.25;1.38;;;19.00;99.90;;;;;;5113732;28;20352;-70
2021/11/03 07:51:06;;;;;;;2.10;1.30;;;19.00;99.90;;;;;;5113429;28;20026;-69
2021/11/03 07:53:34;;;;;;;2.97;1.38;;;19.00;99.90;;;;;;5113519;28;20105;-71
2021/11/03 07:56:05;;;;;;;3.00;1.27;;;19.00;99.90;;;;;;5113206;28;20479;-69
2021/11/03 07:58:36;;;;;;;2.53;1.40;;;19.00;99.90;;;;;;5111921;28;20487;-70
2021/11/03 08:01:03;;;;;;;3.30;1.60;;;19.00;99.90;;;;;;5113620;28;20098;-69
2021/11/03 08:03:28;;;;;;;2.63;1.52;;;19.00;99.90;;;;;;5113330;28;20024;-70
2021/11/03 08:05:55;;;;;;;2.05;1.40;;;19.00;99.90;;;;;;5113465;28;20149;-68
2021/11/03 08:08:24;;;;;;;5.90;1.70;;;19.00;99.90;;;;;;5111747;28;20164;-71
2021/11/03 08:10:53;;;;;;;2.35;1.27;;;19.10;99.90;;;;;;5113239;28;20028;-71
2021/11/03 08:13:21;;;;;;;9.63;1.60;;;19.00;99.90;;;;;;5112987;28;20024;-71
2021/11/03 08:15:50;;;;;;;2.67;1.65;;;19.00;99.90;;;;;;5113074;28;20015;-69
2021/11/03 08:18:18;;;;;;;3.05;1.50;;;19.00;99.90;;;;;;5112657;28;20032;-70
2021/11/03 08:20:44;;;;;;;3.60;1.67;;;19.00;99.90;;;;;;5112980;28;20063;-69
2021/11/03 08:23:11;;;;;;;2.13;1.38;;;19.00;99.90;;;;;;5112555;28;20050;-70
2021/11/03 08:25:38;;;;;;;3.80;1.55;;;19.00;99.90;;;;;;5112652;28;20031;-69
2021/11/03 08:28:04;;;;;;;2.78;1.58;;;19.00;99.90;;;;;;5112764;28;20020;-70
2021/11/03 08:30:30;;;;;;;5.00;1.65;;;19.00;99.90;;;;;;5113076;28;20028;-70
2021/11/03 08:32:58;;;;;;;2.58;1.67;;;19.00;99.90;;;;;;5113004;28;20080;-69
2021/11/03 08:35:26;;;;;;;2.40;1.48;;;19.00;99.90;;;;;;5112645;28;20480;-70
2021/11/03 08:37:53;;;;;;;2.83;1.77;;;19.00;99.90;;;;;;5112720;28;20060;-69
2021/11/03 08:40:22;;;;;;;3.63;1.80;;;19.00;99.90;;;;;;5112294;28;20106;-69
2021/11/03 08:42:49;;;;;;;4.45;1.60;;;19.00;99.90;;;;;;5112492;28;20023;-70
2021/11/03 08:45:15;;;;;;;2.65;1.80;;;19.00;99.90;;;;;;5112167;28;20088;-69
2021/11/03 08:47:42;;;;;;;3.78;1.80;;;19.00;99.90;;;;;;5112415;28;20476;-71
2021/11/03 08:50:12;;;;;;;3.08;1.80;;;19.00;99.90;;;;;;5112077;28;20467;-71
2021/11/03 08:52:38;;;;;;;5.30;1.58;;;19.00;99.90;;;;;;5112392;28;20062;-69
2021/11/03 08:55:04;;;;;;;4.43;1.50;;;19.00;99.90;;;;;;5112257;28;20031;-71
2021/11/03 08:57:33;;;;;;;3.35;1.77;;;19.00;99.90;;;;;;5112077;28;20023;-70
2021/11/03 08:59:59;;;;;;;3.40;1.80;;;19.00;99.90;;;;;;5111648;28;20034;-68
2021/11/03 09:02:26;;;;;;;2.65;1.67;;;19.00;99.90;;;;;;5094579;28;20028;-69
2021/11/03 09:04:53;;;;;;;4.55;1.95;;;19.00;99.90;;;;;;5091149;28;20024;-68
2021/11/03 09:07:18;;;;;;;2.45;1.75;;;19.00;99.90;;;;;;5091399;28;20035;-70
2021/11/03 09:09:45;;;;;;;2.83;1.63;;;19.10;99.90;;;;;;5091744;28;20024;-69
2021/11/03 09:12:12;;;;;;;2.95;1.73;;;19.00;99.90;;;;;;5091168;28;20043;-69
2021/11/03 09:14:38;;;;;;;3.85;1.75;;;19.10;99.90;;;;;;5091776;28;20024;-70
2021/11/03 09:17:04;;;;;;;3.85;1.80;;;19.10;99.90;;;;;;5091510;28;20020;-70
2021/11/03 09:19:30;;;;;;;4.53;1.85;;;19.10;99.90;;;;;;5091634;28;20039;-69
2021/11/03 09:21:55;;;;;;;3.00;1.80;;;19.10;99.90;;;;;;5091110;28;20111;-68
2021/11/03 09:24:21;;;;;;;3.55;1.92;;;19.00;99.90;;;;;;5091394;28;20024;-68
2021/11/03 09:26:46;;;;;;;4.10;2.20;;;19.00;99.90;;;;;;5091500;28;20024;-68
2021/11/03 09:29:12;;;;;;;2.97;2.00;;;19.00;99.90;;;;;;5091494;28;20490;-67
2021/11/03 09:31:39;;;;;;;4.43;2.45;;;19.00;99.90;;;;;;5090848;28;20122;-67
2021/11/03 09:34:05;;;;;;;8.63;3.88;;;19.00;99.90;;;;;;5091185;28;20029;-66
2021/11/03 09:36:32;;;;;;;8.35;4.50;;;18.90;99.90;;;;;;5090533;28;20035;-68
2021/11/03 09:38:58;;;;;;;9.20;4.97;;;18.90;99.90;;;;;;5090685;28;20028;-67
2021/11/03 09:41:49;;;;;;;7.90;5.32;;;18.80;99.90;;;;;;5089776;28;20488;-67
2021/11/03 09:44:25;;;;;;;6.60;4.70;;;18.70;99.90;;;;;;5089573;28;20110;-67
2021/11/03 09:47:13;;;;;;;9.98;5.47;;;18.70;99.90;;;;;;5090218;28;20036;-67
2021/11/03 09:49:46;;;;;;;8.00;5.32;;;18.70;99.90;;;;;;5089032;28;20035;-69
2021/11/03 09:52:18;;;;;;;10.95;5.78;;;18.70;99.90;;;;;;5088857;28;20032;-66
2021/11/03 09:54:48;;;;;;;8.65;5.80;;;18.60;99.90;;;;;;5090511;28;20480;-67
2021/11/03 09:57:40;;;;;;;8.68;5.75;;;18.60;99.90;;;;;;5089640;28;20028;-66
2021/11/03 10:00:27;;;;;;;10.00;6.00;;;18.60;99.90;;;;;;5089660;28;20016;-67
2021/11/03 10:02:58;;;;;;;8.63;5.35;;;18.50;99.90;;;;;;5082909;28;20759;-66
2021/11/03 10:05:46;;;;;;;8.35;5.65;;;18.50;99.90;;;;;;5086457;28;20051;-68
2021/11/03 10:08:23;;;;;;;12.52;5.32;;;18.50;99.90;;;;;;5084966;28;20071;-68
2021/11/03 10:10:54;;;;;;;8.57;5.45;;;18.60;99.90;;;;;;5087974;28;20383;-68
2021/11/03 10:13:23;;;;;;;7.20;4.70;;;18.60;99.90;;;;;;5093927;28;20499;-68
2021/11/03 10:16:17;;;;;;;9.55;4.68;;;18.60;99.90;;;;;;5092897;28;20552;-68
2021/11/03 10:19:00;;;;;;;6.90;3.90;;;18.70;99.90;;;;;;5082576;28;20089;-68
2021/11/03 10:21:32;;;;;;;7.65;4.15;;;18.70;99.90;;;;;;5093051;28;20413;-67
2021/11/03 10:23:59;;;;;;;7.15;4.20;;;18.70;99.90;;;;;;5089934;28;20028;-68
2021/11/03 10:26:46;;;;;;;9.93;4.10;;;18.70;99.90;;;;;;5093983;28;20024;-67
2021/11/03 10:29:12;;;;;;;6.50;3.75;;;18.70;99.90;;;;;;5093601;28;20495;-68
2021/11/03 10:31:46;;;;;;;10.40;4.80;;;18.80;99.90;;;;;;5093791;28;20059;-66
2021/11/03 10:34:30;;;;;;;5.78;4.10;;;18.70;99.90;;;;;;5093376;28;20095;-67
2021/11/03 10:37:21;;;;;;;6.72;3.78;;;18.70;99.90;;;;;;5094148;28;20027;-67
2021/11/03 10:39:55;;;;;;;6.13;3.63;;;18.80;99.90;;;;;;5071490;28;20031;-68
2021/11/03 10:42:27;;;;;;;5.57;4.00;;;18.80;99.90;;;;;;5086045;28;20013;-68
2021/11/03 10:45:30;;;;;;;8.68;4.40;;;18.80;99.90;;;;;;5085732;28;20035;-68
2021/11/03 10:48:24;;;;;;;8.82;4.07;;;18.80;99.90;;;;;;5087248;28;20024;-68
2021/11/03 10:50:56;;;;;;;6.97;4.40;;;18.90;99.90;;;;;;5087122;28;20048;-69
2021/11/03 10:53:43;;;;;;;7.65;4.18;;;18.80;99.90;;;;;;5089466;28;20031;-70
2021/11/03 10:56:31;;;;;;;5.53;3.80;;;18.90;99.90;;;;;;5079699;28;20024;-68
2021/11/03 10:59:25;;;;;;;9.23;4.20;;;19.00;99.90;;;;;;5093916;28;20061;-72
2021/11/03 11:01:52;;;;;;;6.50;3.95;;;19.00;99.90;;;;;;5082670;28;20031;-72
2021/11/03 11:04:39;;;;;;;7.95;3.92;;;19.00;99.90;;;;;;5085993;28;20052;-76
2021/11/03 11:07:23;;;;;;;8.18;3.80;;;19.00;99.90;;;;;;5087314;28;20026;-69
2021/11/03 11:10:23;;;;;;;7.78;3.65;;;19.10;99.90;;;;;;5090037;28;20113;-72
2021/11/03 11:12:50;;;;;;;7.97;3.83;;;19.10;99.90;;;;;;5090919;28;20412;-71
2021/11/03 11:15:28;;;;;;;6.20;3.90;;;19.10;99.90;;;;;;5092211;28;20027;-69
2021/11/03 11:18:31;;;;;;;7.47;3.90;;;19.10;99.90;;;;;;5093333;28;20478;-71
2021/11/03 11:21:01;;;;;;;7.20;3.38;;;19.20;99.90;;;;;;5090377;28;20099;-72
2021/11/03 11:23:39;;;;;;;6.07;3.50;;;19.20;99.90;;;;;;5093457;28;20089;-74
2021/11/03 11:26:22;;;;;;;5.22;3.50;;;19.20;99.90;;;;;;5092340;28;20028;-73
2021/11/03 11:29:00;;;;;;;5.80;3.25;;;19.30;99.90;;;;;;5092406;28;20016;-71
2021/11/03 11:31:37;;;;;;;5.15;3.50;;;19.30;99.90;;;;;;5090552;28;20042;-72
2021/11/03 11:34:30;;;;;;;7.43;3.72;;;19.30;99.90;;;;;;5092256;28;20020;-71
2021/11/03 11:37:28;;;;;;;6.13;3.20;;;19.30;99.90;;;;;;5090654;28;20032;-70
2021/11/03 11:39:58;;;;;;;6.40;3.35;;;19.30;99.90;;;;;;5091630;28;20035;-71
2021/11/03 11:42:35;;;;;;;5.18;3.13;;;19.30;99.90;;;;;;5091321;28;20437;-75
2021/11/03 11:45:19;;;;;;;6.00;3.10;;;19.30;99.90;;;;;;5092970;28;20066;-71
2021/11/03 11:47:49;;;;;;;4.70;2.95;;;19.40;99.90;;;;;;5092686;28;20020;-72
2021/11/03 11:50:37;;;;;;;4.40;2.65;;;19.40;99.90;;;;;;5092659;28;20115;-72
2021/11/03 11:53:37;;;;;;;5.72;3.22;;;19.40;99.90;;;;;;5093201;28;20492;-71
2021/11/03 11:56:07;;;;;;;4.90;2.83;;;19.40;99.90;;;;;;5093017;28;20038;-71
2021/11/03 11:58:34;;;;;;;5.55;3.05;;;19.40;99.90;;;;;;5092955;28;20034;-70
2021/11/03 12:01:17;;;;;;;5.72;2.70;;;19.40;99.90;;;;;;5093238;28;20024;-71
2021/11/03 12:03:57;;;;;;;4.80;2.70;;;19.40;99.90;;;;;;5092767;28;20075;-70
2021/11/03 12:06:41;;;;;;;5.28;3.00;;;19.50;99.90;;;;;;5092503;28;20107;-72
2021/11/03 12:09:34;;;;;;;5.15;2.53;;;19.50;99.90;;;;;;5092520;28;20018;-70
2021/11/03 12:12:06;;;;;;;6.18;2.75;;;19.50;99.90;;;;;;5093027;28;20042;-72
2021/11/03 12:14:34;;;;;;;4.20;2.40;;;19.60;99.90;;;;;;5092663;28;20068;-70
2021/11/03 12:17:03;;;;;;;4.28;2.50;;;19.60;99.90;;;;;;5092937;28;20024;-73
2021/11/03 12:19:41;;;;;;;5.78;2.70;;;19.50;99.90;;;;;;5092631;28;20024;-71
2021/11/03 12:22:30;;;;;;;4.05;2.28;;;19.50;99.90;;;;;;5092393;28;20032;-78
2021/11/03 12:25:37;;;;;;;3.17;2.55;;;19.60;99.90;;;;;;5091038;28;20032;-77
2021/11/03 12:28:09;;;;;;;3.97;2.00;;;19.60;99.90;;;;;;5092354;28;20118;-77
2021/11/03 12:30:39;;;;;;;3.97;2.20;;;19.60;99.90;;;;;;5090909;28;20537;-75
2021/11/03 12:33:10;;;;;;;4.50;2.40;;;19.60;99.90;;;;;;5092128;28;20028;-73
2021/11/03 12:35:35;;;;;;;3.13;2.00;;;19.60;99.90;;;;;;5092402;28;20032;-76
2021/11/03 12:38:10;;;;;;;3.70;1.98;;;19.70;99.90;;;;;;5091277;28;20024;-73
2021/11/03 12:40:35;;;;;;;3.35;2.00;;;19.60;99.90;;;;;;5091757;28;20062;-72
2021/11/03 12:43:16;;;;;;;4.65;1.98;;;19.70;99.90;;;;;;5092483;28;20056;-77
2021/11/03 12:46:06;;;;;;;3.85;1.80;;;19.70;99.90;;;;;;5092259;28;20034;-76
2021/11/03 12:48:51;;;;;;;2.95;1.98;;;19.70;99.90;;;;;;5092276;28;20016;-79
2021/11/03 12:51:25;;;;;;;2.88;1.90;;;19.70;99.90;;;;;;5091748;28;20024;-71
2021/11/03 12:54:21;;;;;;;2.92;2.17;;;19.70;99.90;;;;;;5091919;28;20522;-73
2021/11/03 12:57:01;;;;;;;3.58;2.08;;;19.70;99.90;;;;;;5091147;28;20145;-71
2021/11/03 12:59:29;;;;;;;4.47;2.13;;;19.80;99.90;;;;;;5091608;28;20491;-75
2021/11/03 13:02:02;;;;;;;4.15;2.08;;;19.80;99.90;;;;;;5091781;28;20047;-72